ケアンズ の空港の天気 - METARとTAF

ケアンズ国際空港 ( YBCS / CNS ) - オーストラリア クイーンズランド州ケアンズ
飛行場実況気象(Metar)
観測時間12/14 16:00 AEST (12/14 06:00 UTC)
風向・風速北 4m/s
視程10km以上
天気現象
少しの雲 雲底高度 550m
全天を覆う雲 雲底高度 9140m
気温28℃
湿度79%
気圧1003hPa
METARYBCS 140600Z 01007KT 9999 FEW018 OVC300 28/24 Q1003
過去の天気等 Google飛行場航空写真 Wunderground天気予報

過去48時間のMETAR

飛行場予報(TAF)
発表時間: 12/14 15:22 AEST (12/14 05:22 UTC)
予報対象時間: 14日16時 AEST ~ 15日16時 AEST
風向・風速北 5m/s
視程10km以上
少しの雲 雲底高度 850m
14日18時 AEST から
風向・風速不定 3m/s
視程10km以上
天気現象弱いしゅう雨
全天の4割程度の雲 雲底高度 610m
全天の4割程度の雲 雲底高度 1220m
15日10時 AEST から
風向・風速北東 7m/s
視程10km以上
天気現象弱いしゅう雨
全天の4割程度の雲 雲底高度 610m
全天の8割程度の雲 雲底高度 1070m
15日10時 AEST ~ 15日16時 AEST に一時的に
視程3000m
天気現象しゅう雨
全天の8割程度の雲 雲底高度 370m
15日14時 AEST ~ 15日16時 AEST に 確率 30% で一時的に
風向・風速不定 10m/s 瞬間風速 15m/s
視程800m
天気現象雷雨
全天の8割程度の雲 雲底高度 240m
全天の4割程度の積乱雲 雲底高度 460m
TAF YBCS 140522Z 1406/1506 01010KT 9999 FEW028
FM140800 VRB05KT 9999 -SHRA SCT020 SCT040
FM150000 04014KT 9999 -SHRA SCT020 BKN035 INTER 1412/1424 4000 SHRA BKN015
TEMPO 1500/1506 3000 SHRA BKN012
PROB30 TEMPO 1504/1506 VRB20G30KT 0800 TSRA BKN008 SCT015CB